CheckWX is a tool to help pilots better visualize weather data.  It is not intended as a substitute for an official pre-flight weather briefing.

05:53:55 UTC

KFEP METAR
Albertus Airport
Freeport, Illinois, USA
Current

19 mins ago

KFEP 240535Z AUTO 22012KT 1SM BR OVC003 04/04 A2927 RMK AO2 T00350035
Observed
Feb-24 @ 05:35 UTC
Wind
  • 220° at 12 KTS
Visibility
1 SM
Flight Rules
LIFR
Conditions
Mist
Cloud Levels
  • Overcast at 300' AGL
Temperature
C / 39°F
Dewpoint
C / 39°F
Humidity
100%
Altimeter
29.27" Hg
Pressure
991.22 hPa
Previous

39 mins ago

KFEP 240515Z AUTO 22015KT 4SM BR OVC003 04/04 A2929 RMK AO2 T00350035
Observed
Feb-24 @ 05:15 UTC
Wind
  • 220° at 15 KTS
Visibility
4 SM
Flight Rules
LIFR
Conditions
Mist
Cloud Levels
  • Overcast at 300' AGL
Temperature
C / 39°F
Dewpoint
C / 39°F
Humidity
100%
Altimeter
29.29" Hg
Pressure
991.92 hPa
Previous

59 mins ago

KFEP 240455Z AUTO 20008KT 3SM -DZ OVC003 02/02 A2932 RMK AO2 P0003 T00240024
Observed
Feb-24 @ 04:55 UTC
Wind
  • 200° at 8 KTS
Visibility
3 SM
Flight Rules
LIFR
Conditions
Light Drizzle
Cloud Levels
  • Overcast at 300' AGL
Temperature
C / 36°F
Dewpoint
C / 36°F
Humidity
100%
Altimeter
29.32" Hg
Pressure
992.92 hPa
Current Rain
0.03"